Port Stanley — V7EE9 — position and weather

sailwx.info

Track history (hours):
 
Tides and Currents Weather Stations Pressure Air Temp Water Temp Dewpoint Dewpoint Depression Visibility Wind Speed Wind Dir Waves Ship Positions

Port Stanley

Last reported at 2014-Sep-29 19:33 UTC. Time now 2014-Sep-30 15:50 UTC.
Position N 01°13' E 103°29'.

Length 182 m; draft 8.4 m.

Type: Tanker. MMSI: 538090299.

Date/timePositionNaut miles runAvg speedWind from/ knotsBaromVisibWave heightAir tempDewpointWater temp
2014-Sep-29 19:33N 01°13' E 103°29'1312.8
2014-Sep-29 18:33N 01°10' E 103°41'1212.3
2014-Sep-29 17:33N 01°13' E 103°53'1413.7
2014-Sep-29 16:33N 01°16' E 104°07'  
2014-Sep-25 14:33N 01°15' E 104°03'1111.4
2014-Sep-25 13:34N 01°11' E 103°52'5 4.3
2014-Sep-25 12:29N 01°14' E 103°48'0 0.0
2014-Sep-25 11:32N 01°14' E 103°48'0 0.2
2014-Sep-25 10:32N 01°14' E 103°49'0 0.0
2014-Sep-25 09:32N 01°14' E 103°49'0 0.0
2014-Sep-25 08:32N 01°14' E 103°49'0 0.0
2014-Sep-25 07:32N 01°14' E 103°49'0 0.0
2014-Sep-25 06:32N 01°14' E 103°49'0 0.0
2014-Sep-25 05:32N 01°14' E 103°49'0 0.0
2014-Sep-25 04:32N 01°14' E 103°49'0 0.1
2014-Sep-25 03:32N 01°14' E 103°49'0 0.0
2014-Sep-25 02:32N 01°14' E 103°49'0 0.1
2014-Sep-25 01:29N 01°14' E 103°48'0 0.0
2014-Sep-25 00:32N 01°14' E 103°48'0 0.1
2014-Sep-24 23:32N 01°14' E 103°49'0 0.2
2014-Sep-24 22:26N 01°14' E 103°49'0 0.0
2014-Sep-24 21:32N 01°14' E 103°49'0 0.1
2014-Sep-24 20:32N 01°14' E 103°49'0 0.1
2014-Sep-24 19:29N 01°14' E 103°49'0 0.0
2014-Sep-24 18:29N 01°14' E 103°49'0 0.0
2014-Sep-24 17:29N 01°14' E 103°49'0 0.0
2014-Sep-24 16:32N 01°14' E 103°49'0 0.3
2014-Sep-24 15:33N 01°14' E 103°48'5 4.5
2014-Sep-24 14:33N 01°15' E 103°44'5 4.8
2014-Sep-24 13:33N 01°17' E 103°40'2 2.0
2014-Sep-24 12:32N 01°18' E 103°42'0 0.0
2014-Sep-24 11:32N 01°18' E 103°42'0 0.0
2014-Sep-24 10:32N 01°18' E 103°42'0 0.0
2014-Sep-24 09:32N 01°18' E 103°42'0 0.0
2014-Sep-24 08:32N 01°18' E 103°42'0 0.0
2014-Sep-24 07:26N 01°18' E 103°42'0 0.0
2014-Sep-24 06:32N 01°18' E 103°42'0 0.0
2014-Sep-24 05:32N 01°18' E 103°42'0 0.0
2014-Sep-24 04:23N 01°18' E 103°42'0 0.0
2014-Sep-24 03:32N 01°18' E 103°42'0 0.0
2014-Sep-24 02:32N 01°18' E 103°42'0 0.0
2014-Sep-24 01:32N 01°18' E 103°42'0 0.0
2014-Sep-24 00:32N 01°18' E 103°42'0 0.0
2014-Sep-23 23:32N 01°18' E 103°42'0 0.0
2014-Sep-23 22:32N 01°18' E 103°42'0 0.0
2014-Sep-23 21:32N 01°18' E 103°42'0 0.0
2014-Sep-23 20:32N 01°18' E 103°42'0 0.0
2014-Sep-23 19:32N 01°18' E 103°42'0 0.0
2014-Sep-23 18:32N 01°18' E 103°42'0 0.0
2014-Sep-23 17:32N 01°18' E 103°42'0 0.0
2014-Sep-23 16:32N 01°18' E 103°42'0 0.0
2014-Sep-23 15:32N 01°18' E 103°42'0 0.0
2014-Sep-23 14:32N 01°18' E 103°42'0 0.0
2014-Sep-23 13:32N 01°18' E 103°42'0 0.0
2014-Sep-23 12:29N 01°18' E 103°42'0 0.0
2014-Sep-23 11:32N 01°18' E 103°42'0 0.0
2014-Sep-23 10:32N 01°18' E 103°42'0 0.0
2014-Sep-23 09:32N 01°18' E 103°42'0 0.1
2014-Sep-23 08:33N 01°18' E 103°41'4 3.6
2014-Sep-23 07:34N 01°15' E 103°39'7 7.3
2014-Sep-23 06:33N 01°15' E 103°47'2 2.3
2014-Sep-23 05:33N 01°14' E 103°49'0 0.0
2014-Sep-23 04:30N 01°14' E 103°49'0 0.1
2014-Sep-23 03:30N 01°14' E 103°49'0 0.1
2014-Sep-23 02:33N 01°14' E 103°49'0 0.1
2014-Sep-23 01:33N 01°14' E 103°49'0 0.1
2014-Sep-23 00:33N 01°14' E 103°49'0 0.1
2014-Sep-22 23:33N 01°14' E 103°49'0 0.1
2014-Sep-22 22:33N 01°14' E 103°49'0 0.1
2014-Sep-22 21:33N 01°14' E 103°49'0 0.0
2014-Sep-22 20:33N 01°14' E 103°49'0 0.0
2014-Sep-22 19:33N 01°14' E 103°49'0 0.0
2014-Sep-22 18:30N 01°14' E 103°49'0 0.0
2014-Sep-22 17:33N 01°14' E 103°49'0 0.0
2014-Sep-22 16:33N 01°14' E 103°49'0 0.2
2014-Sep-22 15:30N 01°14' E 103°49'0 0.0
2014-Sep-22 14:33N 01°14' E 103°49'0 0.0
2014-Sep-22 13:30N 01°14' E 103°49'0 0.0
2014-Sep-22 12:30N 01°14' E 103°49'0 0.0
2014-Sep-22 11:30N 01°14' E 103°49'0 0.1
2014-Sep-22 10:33N 01°14' E 103°49'0 0.1
2014-Sep-22 09:33N 01°14' E 103°49'0 0.1
2014-Sep-22 08:33N 01°14' E 103°49'0 0.0
2014-Sep-22 07:33N 01°14' E 103°49'0 0.0
2014-Sep-22 06:18N 01°14' E 103°49'0 0.1
2014-Sep-22 05:30N 01°14' E 103°49'0 0.0
2014-Sep-22 04:33N 01°14' E 103°49'0 0.1
2014-Sep-22 03:30N 01°14' E 103°49'0 0.1
2014-Sep-22 02:33N 01°14' E 103°49'0 0.0
2014-Sep-22 01:33N 01°14' E 103°49'0 0.1
2014-Sep-22 00:33N 01°14' E 103°49'0 0.0
2014-Sep-21 23:30N 01°14' E 103°49'0 0.1
2014-Sep-21 22:33N 01°14' E 103°49'0 0.1
2014-Sep-21 21:33N 01°14' E 103°49'0 0.0
2014-Sep-21 20:33N 01°14' E 103°49'0 0.0
2014-Sep-21 19:33N 01°14' E 103°49'0 0.0
2014-Sep-21 18:33N 01°14' E 103°49'0 0.0
2014-Sep-21 17:33N 01°14' E 103°49'0 0.0
2014-Sep-21 16:33N 01°14' E 103°49'0 0.0
2014-Sep-21 15:30N 01°14' E 103°49'0 0.0
2014-Sep-21 14:21N 01°14' E 103°49'0 0.2
2014-Sep-21 13:33N 01°14' E 103°49'0 0.1
2014-Sep-21 12:33N 01°14' E 103°49'0 0.2
2014-Sep-21 11:33N 01°14' E 103°49'0 0.1
2014-Sep-21 10:33N 01°14' E 103°49'0 0.0
2014-Sep-21 09:33N 01°14' E 103°49'0 0.1
2014-Sep-21 08:33N 01°14' E 103°49'0 0.1
2014-Sep-21 07:33N 01°14' E 103°49'0 0.0
2014-Sep-21 06:33N 01°14' E 103°49'0 0.0
2014-Sep-21 05:33N 01°14' E 103°49'0 0.0
2014-Sep-21 04:33N 01°14' E 103°49'0 0.1
2014-Sep-21 03:33N 01°14' E 103°49'0 0.0
2014-Sep-21 02:33N 01°14' E 103°49'0 0.1
2014-Sep-21 01:33N 01°14' E 103°49'0 0.0
2014-Sep-21 00:30N 01°14' E 103°49'0 0.0
2014-Sep-20 23:30N 01°14' E 103°49'0 0.1
2014-Sep-20 22:33N 01°14' E 103°49'0 0.0
2014-Sep-20 21:30N 01°14' E 103°49'0 0.1
2014-Sep-20 20:33N 01°14' E 103°49'0 0.0
2014-Sep-20 19:33N 01°14' E 103°49'0 0.0
2014-Sep-20 18:33N 01°14' E 103°49'3 2.7
2014-Sep-20 17:33N 01°12' E 103°51'8 7.8
2014-Sep-20 16:33N 01°16' E 103°58'7 7.0
2014-Sep-20 15:31N 01°16' E 104°05'  
Track history (hours):
 
Tides and Currents Weather Stations Pressure Air Temp Water Temp Dewpoint Dewpoint Depression Visibility Wind Speed Wind Dir Waves Ship Positions

Port Stanley

Last reported at 2014-Sep-29 19:33 UTC. Time now 2014-Sep-30 15:50 UTC.
Position N 01°13' E 103°29'.

Length 182 m; draft 8.4 m.

Type: Tanker. MMSI: 538090299.

Date/timePositionNaut miles runAvg speedWind from/ knotsBaromVisibWave heightAir tempDewpointWater temp
2014-Sep-29 19:33N 01°13' E 103°29'1312.8
2014-Sep-29 18:33N 01°10' E 103°41'1212.3
2014-Sep-29 17:33N 01°13' E 103°53'1413.7
2014-Sep-29 16:33N 01°16' E 104°07'  
2014-Sep-25 14:33N 01°15' E 104°03'1111.4
2014-Sep-25 13:34N 01°11' E 103°52'5 4.3
2014-Sep-25 12:29N 01°14' E 103°48'0 0.0
2014-Sep-25 11:32N 01°14' E 103°48'0 0.2
2014-Sep-25 10:32N 01°14' E 103°49'0 0.0
2014-Sep-25 09:32N 01°14' E 103°49'0 0.0
2014-Sep-25 08:32N 01°14' E 103°49'0 0.0
2014-Sep-25 07:32N 01°14' E 103°49'0 0.0
2014-Sep-25 06:32N 01°14' E 103°49'0 0.0
2014-Sep-25 05:32N 01°14' E 103°49'0 0.0
2014-Sep-25 04:32N 01°14' E 103°49'0 0.1
2014-Sep-25 03:32N 01°14' E 103°49'0 0.0
2014-Sep-25 02:32N 01°14' E 103°49'0 0.1
2014-Sep-25 01:29N 01°14' E 103°48'0 0.0
2014-Sep-25 00:32N 01°14' E 103°48'0 0.1
2014-Sep-24 23:32N 01°14' E 103°49'0 0.2
2014-Sep-24 22:26N 01°14' E 103°49'0 0.0
2014-Sep-24 21:32N 01°14' E 103°49'0 0.1
2014-Sep-24 20:32N 01°14' E 103°49'0 0.1
2014-Sep-24 19:29N 01°14' E 103°49'0 0.0
2014-Sep-24 18:29N 01°14' E 103°49'0 0.0
2014-Sep-24 17:29N 01°14' E 103°49'0 0.0
2014-Sep-24 16:32N 01°14' E 103°49'0 0.3
2014-Sep-24 15:33N 01°14' E 103°48'5 4.5
2014-Sep-24 14:33N 01°15' E 103°44'5 4.8
2014-Sep-24 13:33N 01°17' E 103°40'2 2.0
2014-Sep-24 12:32N 01°18' E 103°42'0 0.0
2014-Sep-24 11:32N 01°18' E 103°42'0 0.0
2014-Sep-24 10:32N 01°18' E 103°42'0 0.0
2014-Sep-24 09:32N 01°18' E 103°42'0 0.0
2014-Sep-24 08:32N 01°18' E 103°42'0 0.0
2014-Sep-24 07:26N 01°18' E 103°42'0 0.0
2014-Sep-24 06:32N 01°18' E 103°42'0 0.0
2014-Sep-24 05:32N 01°18' E 103°42'0 0.0
2014-Sep-24 04:23N 01°18' E 103°42'0 0.0
2014-Sep-24 03:32N 01°18' E 103°42'0 0.0
2014-Sep-24 02:32N 01°18' E 103°42'0 0.0
2014-Sep-24 01:32N 01°18' E 103°42'0 0.0
2014-Sep-24 00:32N 01°18' E 103°42'0 0.0
2014-Sep-23 23:32N 01°18' E 103°42'0 0.0
2014-Sep-23 22:32N 01°18' E 103°42'0 0.0
2014-Sep-23 21:32N 01°18' E 103°42'0 0.0
2014-Sep-23 20:32N 01°18' E 103°42'0 0.0
2014-Sep-23 19:32N 01°18' E 103°42'0 0.0
2014-Sep-23 18:32N 01°18' E 103°42'0 0.0
2014-Sep-23 17:32N 01°18' E 103°42'0 0.0
2014-Sep-23 16:32N 01°18' E 103°42'0 0.0
2014-Sep-23 15:32N 01°18' E 103°42'0 0.0
2014-Sep-23 14:32N 01°18' E 103°42'0 0.0
2014-Sep-23 13:32N 01°18' E 103°42'0 0.0
2014-Sep-23 12:29N 01°18' E 103°42'0 0.0
2014-Sep-23 11:32N 01°18' E 103°42'0 0.0
2014-Sep-23 10:32N 01°18' E 103°42'0 0.0
2014-Sep-23 09:32N 01°18' E 103°42'0 0.1
2014-Sep-23 08:33N 01°18' E 103°41'4 3.6
2014-Sep-23 07:34N 01°15' E 103°39'7 7.3
2014-Sep-23 06:33N 01°15' E 103°47'2 2.3
2014-Sep-23 05:33N 01°14' E 103°49'0 0.0
2014-Sep-23 04:30N 01°14' E 103°49'0 0.1
2014-Sep-23 03:30N 01°14' E 103°49'0 0.1
2014-Sep-23 02:33N 01°14' E 103°49'0 0.1
2014-Sep-23 01:33N 01°14' E 103°49'0 0.1
2014-Sep-23 00:33N 01°14' E 103°49'0 0.1
2014-Sep-22 23:33N 01°14' E 103°49'0 0.1
2014-Sep-22 22:33N 01°14' E 103°49'0 0.1
2014-Sep-22 21:33N 01°14' E 103°49'0 0.0
2014-Sep-22 20:33N 01°14' E 103°49'0 0.0
2014-Sep-22 19:33N 01°14' E 103°49'0 0.0
2014-Sep-22 18:30N 01°14' E 103°49'0 0.0
2014-Sep-22 17:33N 01°14' E 103°49'0 0.0
2014-Sep-22 16:33N 01°14' E 103°49'0 0.2
2014-Sep-22 15:30N 01°14' E 103°49'0 0.0
2014-Sep-22 14:33N 01°14' E 103°49'0 0.0
2014-Sep-22 13:30N 01°14' E 103°49'0 0.0
2014-Sep-22 12:30N 01°14' E 103°49'0 0.0
2014-Sep-22 11:30N 01°14' E 103°49'0 0.1
2014-Sep-22 10:33N 01°14' E 103°49'0 0.1
2014-Sep-22 09:33N 01°14' E 103°49'0 0.1
2014-Sep-22 08:33N 01°14' E 103°49'0 0.0
2014-Sep-22 07:33N 01°14' E 103°49'0 0.0
2014-Sep-22 06:18N 01°14' E 103°49'0 0.1
2014-Sep-22 05:30N 01°14' E 103°49'0 0.0
2014-Sep-22 04:33N 01°14' E 103°49'0 0.1
2014-Sep-22 03:30N 01°14' E 103°49'0 0.1
2014-Sep-22 02:33N 01°14' E 103°49'0 0.0
2014-Sep-22 01:33N 01°14' E 103°49'0 0.1
2014-Sep-22 00:33N 01°14' E 103°49'0 0.0
2014-Sep-21 23:30N 01°14' E 103°49'0 0.1
2014-Sep-21 22:33N 01°14' E 103°49'0 0.1
2014-Sep-21 21:33N 01°14' E 103°49'0 0.0
2014-Sep-21 20:33N 01°14' E 103°49'0 0.0
2014-Sep-21 19:33N 01°14' E 103°49'0 0.0
2014-Sep-21 18:33N 01°14' E 103°49'0 0.0
2014-Sep-21 17:33N 01°14' E 103°49'0 0.0
2014-Sep-21 16:33N 01°14' E 103°49'0 0.0
2014-Sep-21 15:30N 01°14' E 103°49'0 0.0
2014-Sep-21 14:21N 01°14' E 103°49'0 0.2
2014-Sep-21 13:33N 01°14' E 103°49'0 0.1
2014-Sep-21 12:33N 01°14' E 103°49'0 0.2
2014-Sep-21 11:33N 01°14' E 103°49'0 0.1
2014-Sep-21 10:33N 01°14' E 103°49'0 0.0
2014-Sep-21 09:33N 01°14' E 103°49'0 0.1
2014-Sep-21 08:33N 01°14' E 103°49'0 0.1
2014-Sep-21 07:33N 01°14' E 103°49'0 0.0
2014-Sep-21 06:33N 01°14' E 103°49'0 0.0
2014-Sep-21 05:33N 01°14' E 103°49'0 0.0
2014-Sep-21 04:33N 01°14' E 103°49'0 0.1
2014-Sep-21 03:33N 01°14' E 103°49'0 0.0
2014-Sep-21 02:33N 01°14' E 103°49'0 0.1
2014-Sep-21 01:33N 01°14' E 103°49'0 0.0
2014-Sep-21 00:30N 01°14' E 103°49'0 0.0
2014-Sep-20 23:30N 01°14' E 103°49'0 0.1
2014-Sep-20 22:33N 01°14' E 103°49'0 0.0
2014-Sep-20 21:30N 01°14' E 103°49'0 0.1
2014-Sep-20 20:33N 01°14' E 103°49'0 0.0
2014-Sep-20 19:33N 01°14' E 103°49'0 0.0
2014-Sep-20 18:33N 01°14' E 103°49'3 2.7
2014-Sep-20 17:33N 01°12' E 103°51'8 7.8
2014-Sep-20 16:33N 01°16' E 103°58'7 7.0
2014-Sep-20 15:31N 01°16' E 104°05'  

Dump ship's entire track history